Wilmot, Wisconsin
Current Conditions -  °F | °C
As of 7:15 AM on Thursday 23 Oct 2014 (Local Time) from KBUU Reporting Station
Moderate Fog Moderate Fog  
Wind Chill: 25°   Ceiling: 100
Heat Index: 25°   Visibility: 0.25mi
Dew Point: 25°   Wind: 0mph
Humidity: 99%   Direction: NA
Pressure: 30.2"   Gusts: NA
Location:  42.51°N, 88.18°W
Report Text: KBUU 231215Z AUTO 00000KT 1/4SM FZFG BKN001 M04/M04 A3020 RMK AO2 T10401041
Loading
Personal Weather Stations






























Interactive Weather Map
Tropical Storm Tracking
New forecast layout! Learn more

10-Day Weather Forecast

Advertisements
Track Severe Weather on mobile